createdAt,value
2023-03-21T00:02:10.758Z,3.72
2023-03-21T00:08:35.509Z,4.07
2023-03-21T00:11:37.790Z,4.25
2023-03-21T00:14:40.153Z,5.10
2023-03-21T00:17:44.875Z,5.00
2023-03-21T00:21:25.688Z,5.07
2023-03-21T00:24:22.939Z,4.30
2023-03-21T00:27:53.670Z,4.10
2023-03-21T00:30:47.711Z,4.75
2023-03-21T00:33:50.495Z,5.60
2023-03-21T00:36:52.863Z,4.87
2023-03-21T00:39:55.338Z,5.20
2023-03-21T00:42:57.738Z,4.93
2023-03-21T00:46:03.008Z,4.78
2023-03-21T00:49:05.316Z,4.47
2023-03-21T00:52:18.274Z,3.70
2023-03-21T00:55:26.922Z,4.27
2023-03-21T00:58:29.674Z,4.93
2023-03-21T01:01:34.648Z,4.75
2023-03-21T01:04:42.039Z,4.40
2023-03-21T01:07:46.128Z,4.10
2023-03-21T01:10:49.588Z,4.63
2023-03-21T01:14:04.176Z,5.50
2023-03-21T01:17:09.999Z,4.45
2023-03-21T01:20:12.661Z,4.45
2023-03-21T01:23:15.570Z,5.53
2023-03-21T01:26:18.230Z,4.40
2023-03-21T01:29:21.153Z,5.43
2023-03-21T01:32:23.514Z,5.35
2023-03-21T01:35:27.019Z,5.38
2023-03-21T01:38:32.293Z,4.30
2023-03-21T01:41:43.088Z,5.47
2023-03-21T01:45:49.904Z,4.70
2023-03-21T01:48:57.087Z,4.43
2023-03-21T01:52:13.193Z,3.85
2023-03-21T01:55:20.667Z,5.23
2023-03-21T01:58:33.934Z,5.23
2023-03-21T02:01:56.612Z,4.25
2023-03-21T02:05:03.844Z,6.50
2023-03-21T02:08:07.211Z,6.97
2023-03-21T02:11:12.850Z,5.93
2023-03-21T02:14:28.631Z,5.70
2023-03-21T02:17:52.065Z,6.35
2023-03-21T02:21:13.301Z,4.85
2023-03-21T02:24:54.418Z,5.30
2023-03-21T02:28:07.990Z,4.10
2023-03-21T02:31:16.506Z,5.47
2023-03-21T02:35:09.980Z,3.83
2023-03-21T02:38:28.432Z,4.72
2023-03-21T02:41:42.147Z,4.53
2023-03-21T02:45:13.636Z,4.37
2023-03-21T02:48:35.386Z,5.10
2023-03-21T02:51:45.338Z,4.72
2023-03-21T02:54:49.071Z,4.72
2023-03-21T02:57:59.180Z,3.72
2023-03-21T03:01:07.094Z,3.20
2023-03-21T03:04:31.842Z,4.50
2023-03-21T03:07:51.601Z,3.55
2023-03-21T03:11:12.600Z,4.43
2023-03-21T03:14:59.900Z,3.83
2023-03-21T03:18:15.434Z,3.53
2023-03-21T03:21:31.808Z,4.87
2023-03-21T03:24:38.193Z,3.40
2023-03-21T03:27:44.350Z,3.72
2023-03-21T03:31:01.250Z,3.30
2023-03-21T03:34:17.971Z,3.90
2023-03-21T03:37:26.310Z,4.13
2023-03-21T03:40:44.603Z,3.42
2023-03-21T03:44:06.386Z,3.35
2023-03-21T03:47:56.237Z,3.50
2023-03-21T03:51:07.072Z,3.60
2023-03-21T03:54:34.675Z,3.87
2023-03-21T03:57:38.517Z,3.88
2023-03-21T04:00:41.067Z,2.97
2023-03-21T04:03:50.473Z,4.00
2023-03-21T04:06:54.382Z,3.83
2023-03-21T04:09:59.232Z,2.70
2023-03-21T04:13:02.860Z,3.03
2023-03-21T04:16:28.492Z,3.97
2023-03-21T04:19:31.250Z,3.00
2023-03-21T04:22:34.821Z,3.90
2023-03-21T04:25:44.548Z,2.93
2023-03-21T04:28:51.396Z,3.97
2023-03-21T04:32:17.771Z,3.17
2023-03-21T04:35:27.095Z,2.83
2023-03-21T04:38:30.973Z,2.30
2023-03-21T04:41:37.727Z,3.50
2023-03-21T04:44:41.386Z,2.85
2023-03-21T04:47:44.125Z,2.97
2023-03-21T04:50:46.889Z,2.50
2023-03-21T04:53:49.584Z,3.13
2023-03-21T04:56:52.206Z,3.30
2023-03-21T04:59:54.620Z,2.83
2023-03-21T05:02:58.695Z,2.80
2023-03-21T05:06:01.685Z,2.88
2023-03-21T05:09:08.314Z,2.97
2023-03-21T05:12:11.959Z,2.60
2023-03-21T05:15:14.446Z,2.65
2023-03-21T05:18:24.887Z,2.75
2023-03-21T05:21:41.433Z,2.33
2023-03-21T05:24:50.390Z,2.93
2023-03-21T05:28:10.061Z,2.27
2023-03-21T05:31:15.890Z,2.60
2023-03-21T05:34:19.467Z,2.60
2023-03-21T05:37:22.096Z,1.90
2023-03-21T05:40:26.141Z,2.43
2023-03-21T05:43:32.040Z,2.70
2023-03-21T05:46:34.819Z,2.47
2023-03-21T05:49:38.094Z,2.10
2023-03-21T05:52:41.435Z,2.65
2023-03-21T05:55:47.846Z,2.20
2023-03-21T05:59:04.798Z,2.93
2023-03-21T06:02:12.557Z,2.72
2023-03-21T06:05:15.491Z,4.60
2023-03-21T06:08:18.069Z,3.20
2023-03-21T06:11:27.708Z,4.90
2023-03-21T06:14:47.125Z,4.07
2023-03-21T06:18:05.576Z,3.67
2023-03-21T06:21:08.577Z,5.00
2023-03-21T06:24:11.191Z,4.15
2023-03-21T06:27:17.315Z,5.13
2023-03-21T06:30:30.777Z,7.30
2023-03-21T06:33:46.658Z,4.88
2023-03-21T06:36:49.187Z,5.63
2023-03-21T06:39:55.480Z,6.78
2023-03-21T06:42:58.761Z,9.27
2023-03-21T06:46:01.886Z,6.43
2023-03-21T06:49:04.302Z,10.00
2023-03-21T06:52:06.816Z,5.90
2023-03-21T06:55:09.818Z,9.82
2023-03-21T06:58:12.813Z,16.57
2023-03-21T07:01:15.913Z,8.10
2023-03-21T07:04:29.702Z,7.50
2023-03-21T07:07:33.748Z,10.27
2023-03-21T07:10:39.579Z,14.57
2023-03-21T07:13:42.548Z,11.20
2023-03-21T07:16:45.018Z,8.23
2023-03-21T07:19:48.872Z,8.48
2023-03-21T07:22:53.482Z,7.82
2023-03-21T07:25:56.645Z,12.82
2023-03-21T07:28:59.154Z,12.03
2023-03-21T07:32:02.884Z,13.27
2023-03-21T07:35:07.016Z,7.45
2023-03-21T07:38:09.400Z,11.70
2023-03-21T07:41:12.844Z,45.13
2023-03-21T07:44:15.722Z,42.77
2023-03-21T07:47:18.190Z,38.30
2023-03-21T07:50:23.232Z,27.23
2023-03-21T07:53:25.680Z,29.75
2023-03-21T07:56:28.750Z,29.08
2023-03-21T07:59:31.178Z,25.90
2023-03-21T08:02:33.559Z,30.80
2023-03-21T08:05:38.212Z,24.88
2023-03-21T08:08:41.222Z,26.00
2023-03-21T08:11:43.606Z,21.83
2023-03-21T08:14:46.225Z,22.47
2023-03-21T08:17:48.955Z,25.53
2023-03-21T08:21:08.850Z,19.35
2023-03-21T08:24:11.948Z,23.58
2023-03-21T08:27:14.447Z,15.55
2023-03-21T08:30:21.761Z,21.50
2023-03-21T08:33:27.561Z,21.87
2023-03-21T08:36:33.585Z,16.50
2023-03-21T08:39:35.988Z,19.67
2023-03-21T08:42:39.112Z,16.27
2023-03-21T08:45:41.669Z,17.80
2023-03-21T08:48:44.238Z,65.40
2023-03-21T08:51:47.030Z,35.00
2023-03-21T08:54:52.637Z,30.52
2023-03-21T08:57:55.780Z,23.58
2023-03-21T09:00:58.190Z,26.60
2023-03-21T09:04:00.675Z,24.10
2023-03-21T09:07:05.096Z,23.52
2023-03-21T09:10:25.652Z,24.40
2023-03-21T09:13:28.338Z,22.52
2023-03-21T09:16:31.437Z,25.77
2023-03-21T09:19:35.145Z,20.27
2023-03-21T09:22:42.469Z,18.27
2023-03-21T09:25:46.141Z,21.30
2023-03-21T09:28:50.081Z,18.83
2023-03-21T09:31:53.589Z,19.80
2023-03-21T09:35:00.289Z,24.30
2023-03-21T09:38:03.089Z,19.67
2023-03-21T09:41:10.033Z,17.40
2023-03-21T09:44:15.632Z,18.70
2023-03-21T09:47:29.266Z,16.70
2023-03-21T09:50:35.133Z,19.40
2023-03-21T09:53:40.172Z,12.98
2023-03-21T09:56:43.360Z,14.60
2023-03-21T09:59:49.504Z,18.52
2023-03-21T10:02:56.959Z,13.00
2023-03-21T10:06:01.298Z,20.60
2023-03-21T10:09:09.773Z,13.18
2023-03-21T10:12:21.533Z,14.43
2023-03-21T10:15:26.798Z,15.73
2023-03-21T10:18:31.178Z,15.13
2023-03-21T10:22:03.652Z,12.30
2023-03-21T10:24:56.101Z,10.82
2023-03-21T10:28:00.023Z,17.13
2023-03-21T10:31:04.724Z,9.45
2023-03-21T10:34:16.773Z,10.27
2023-03-21T10:37:19.415Z,13.03
2023-03-21T10:40:21.892Z,11.00
2023-03-21T10:43:27.517Z,12.07
2023-03-21T10:46:30.179Z,7.05
2023-03-21T10:49:40.226Z,22.33
2023-03-21T10:53:00.575Z,11.63
2023-03-21T10:56:07.558Z,16.45
2023-03-21T10:59:20.354Z,14.35
2023-03-21T11:02:35.467Z,9.73
2023-03-21T11:05:40.889Z,8.40
2023-03-21T11:09:08.429Z,9.13
2023-03-21T11:12:13.310Z,11.00
2023-03-21T11:15:38.075Z,11.98
2023-03-21T11:18:43.703Z,15.32
2023-03-21T11:21:46.510Z,15.33
2023-03-21T11:24:52.512Z,13.03
2023-03-21T11:27:56.073Z,7.75
2023-03-21T11:31:00.678Z,11.30
2023-03-21T11:34:06.866Z,14.60
2023-03-21T11:37:21.634Z,10.90
2023-03-21T11:40:32.364Z,14.33
2023-03-21T11:43:42.285Z,9.07
2023-03-21T11:46:44.818Z,10.68
2023-03-21T11:49:55.688Z,16.08
2023-03-21T11:53:21.696Z,10.80
2023-03-21T11:56:38.427Z,8.37
2023-03-21T11:59:48.623Z,11.82
2023-03-21T12:03:23.911Z,9.45
2023-03-21T12:06:36.476Z,10.00
2023-03-21T12:09:42.971Z,12.63
2023-03-21T12:12:48.940Z,16.00
2023-03-21T12:16:00.176Z,9.13
2023-03-21T12:19:12.642Z,9.38
2023-03-21T12:22:17.933Z,10.25
2023-03-21T12:25:31.623Z,9.03
2023-03-21T12:29:06.326Z,12.93
2023-03-21T12:32:42.571Z,8.00
2023-03-21T12:36:30.057Z,9.73
2023-03-21T12:39:37.640Z,15.52
2023-03-21T12:43:11.149Z,6.63
2023-03-21T12:46:28.565Z,7.33
2023-03-21T12:49:41.764Z,9.70
2023-03-21T12:53:13.936Z,9.85
2023-03-21T12:56:22.121Z,6.35
2023-03-21T12:59:40.032Z,8.03
2023-03-21T13:02:43.970Z,8.20
2023-03-21T13:05:56.128Z,10.30
2023-03-21T13:09:00.099Z,10.43
2023-03-21T13:12:08.804Z,7.47
2023-03-21T13:15:24.103Z,10.87
2023-03-21T13:18:56.481Z,9.67
2023-03-21T13:22:07.418Z,7.00
2023-03-21T13:25:23.803Z,8.90
2023-03-21T13:28:29.322Z,7.60
2023-03-21T13:31:48.852Z,8.37
2023-03-21T13:34:59.231Z,7.03
2023-03-21T13:38:05.282Z,6.95
2023-03-21T13:41:08.898Z,7.43
2023-03-21T13:44:23.409Z,9.05
2023-03-21T13:47:59.169Z,5.03
2023-03-21T13:51:04.261Z,5.20
2023-03-21T13:54:16.354Z,11.95
2023-03-21T13:57:30.579Z,9.48
2023-03-21T14:00:39.887Z,8.70
2023-03-21T14:03:45.306Z,5.10
2023-03-21T14:07:24.711Z,6.30
2023-03-21T14:10:34.640Z,8.05
2023-03-21T14:13:50.763Z,5.47
2023-03-21T14:16:54.095Z,7.47
2023-03-21T14:20:20.276Z,7.73
2023-03-21T14:23:23.824Z,8.50
2023-03-21T14:26:27.990Z,7.07
2023-03-21T14:29:33.656Z,9.98
2023-03-21T14:32:36.243Z,3.15
2023-03-21T14:35:41.488Z,4.40
2023-03-21T14:38:44.280Z,8.50
2023-03-21T14:41:54.695Z,7.75
2023-03-21T14:45:00.552Z,9.20
2023-03-21T14:48:08.094Z,7.20
2023-03-21T14:51:12.358Z,9.10
2023-03-21T14:54:19.623Z,10.70
2023-03-21T14:57:25.179Z,11.05
2023-03-21T15:00:30.106Z,11.20
2023-03-21T15:03:32.815Z,12.90
2023-03-21T15:06:52.842Z,12.20
2023-03-21T15:09:57.793Z,20.93
2023-03-21T15:13:02.587Z,13.77
2023-03-21T15:16:05.698Z,15.10
2023-03-21T15:19:11.969Z,17.08
2023-03-21T15:22:24.582Z,14.13
2023-03-21T15:25:29.412Z,16.63
2023-03-21T15:28:33.718Z,14.07
2023-03-21T15:31:40.322Z,12.30
2023-03-21T15:34:43.186Z,15.98
2023-03-21T15:37:54.042Z,21.07
2023-03-21T15:41:19.607Z,12.33
2023-03-21T15:44:22.296Z,13.70
2023-03-21T15:47:41.583Z,12.77
2023-03-21T15:50:51.392Z,9.50
2023-03-21T15:53:56.599Z,15.53
2023-03-21T15:57:04.428Z,12.87
2023-03-21T16:00:19.946Z,12.13
2023-03-21T16:03:28.617Z,13.63
2023-03-21T16:06:36.641Z,11.15
2023-03-21T16:09:42.813Z,10.93
2023-03-21T16:12:45.222Z,15.83
2023-03-21T16:15:47.668Z,10.95
2023-03-21T16:18:51.732Z,14.93
2023-03-21T16:21:54.114Z,18.27
2023-03-21T16:24:56.452Z,13.57
2023-03-21T16:27:59.234Z,11.77
2023-03-21T16:31:04.369Z,7.72
2023-03-21T16:34:07.224Z,17.42
2023-03-21T16:37:11.879Z,13.85
2023-03-21T16:40:30.574Z,23.13
2023-03-21T16:43:32.866Z,12.50
2023-03-21T16:46:35.511Z,19.25
2023-03-21T16:49:37.879Z,13.70
2023-03-21T16:52:40.288Z,10.68
2023-03-21T16:55:42.831Z,13.40
2023-03-21T16:58:45.452Z,11.07
2023-03-21T17:01:48.565Z,10.93
2023-03-21T17:04:51.588Z,14.88
2023-03-21T17:07:54.815Z,15.52
2023-03-21T17:10:59.181Z,13.83
2023-03-21T17:14:02.425Z,13.10
2023-03-21T17:17:04.886Z,14.00
2023-03-21T17:20:19.811Z,23.80
2023-03-21T17:23:22.213Z,15.63
2023-03-21T17:26:27.497Z,13.20
2023-03-21T17:29:30.376Z,10.90
2023-03-21T17:32:32.773Z,11.15
2023-03-21T17:35:35.362Z,13.35
2023-03-21T17:38:38.137Z,8.82
2023-03-21T17:41:41.333Z,12.33
2023-03-21T17:44:44.006Z,10.47
2023-03-21T17:47:46.749Z,14.07
2023-03-21T17:50:49.190Z,11.43
2023-03-21T17:53:51.920Z,11.02
2023-03-21T17:56:56.222Z,8.37
2023-03-21T17:59:58.722Z,13.40
2023-03-21T18:03:01.124Z,10.57
2023-03-21T18:06:03.971Z,9.05
2023-03-21T18:09:11.294Z,16.40
2023-03-21T18:12:13.985Z,12.73
2023-03-21T18:15:18.914Z,13.17
2023-03-21T18:18:21.737Z,12.52
2023-03-21T18:21:26.251Z,8.70
2023-03-21T18:24:31.243Z,9.05
2023-03-21T18:27:35.298Z,13.13
2023-03-21T18:31:00.410Z,13.17
2023-03-21T18:34:01.114Z,7.10
2023-03-21T18:37:08.184Z,11.88
2023-03-21T18:40:12.169Z,8.25
2023-03-21T18:43:59.261Z,10.47
2023-03-21T18:46:37.510Z,10.37
2023-03-21T18:53:04.296Z,8.60
2023-03-21T18:56:10.149Z,9.18
2023-03-21T18:59:14.117Z,8.00
2023-03-21T19:02:17.193Z,8.80
2023-03-21T19:05:22.648Z,9.95
2023-03-21T19:08:25.339Z,8.38
2023-03-21T19:11:29.369Z,8.27
2023-03-21T19:14:33.480Z,6.00
2023-03-21T19:21:01.307Z,9.35
2023-03-21T19:27:27.679Z,10.13
2023-03-21T19:30:30.318Z,7.47
2023-03-21T19:33:33.145Z,7.57
2023-03-21T19:36:35.924Z,7.80
2023-03-21T19:39:38.868Z,9.70
2023-03-21T19:42:43.089Z,8.55
2023-03-21T19:45:48.814Z,7.13
2023-03-21T19:48:56.106Z,7.70
2023-03-21T19:51:59.299Z,8.25
2023-03-21T19:55:01.628Z,8.68
2023-03-21T19:58:06.133Z,8.52
2023-03-21T20:01:11.479Z,6.87
2023-03-21T20:04:14.870Z,5.33
2023-03-21T20:07:17.467Z,9.23
2023-03-21T20:10:20.470Z,5.35
2023-03-21T20:13:23.130Z,5.25
2023-03-21T20:16:33.695Z,6.20
2023-03-21T20:19:37.005Z,6.23
2023-03-21T20:23:10.660Z,6.55
2023-03-21T20:26:10.877Z,4.70
2023-03-21T20:30:07.473Z,5.53
2023-03-21T20:32:37.471Z,6.17
2023-03-21T20:39:04.244Z,5.57
2023-03-21T20:42:06.906Z,5.40
2023-03-21T20:45:12.031Z,7.72
2023-03-21T20:48:16.698Z,4.23
2023-03-21T20:54:42.321Z,4.38
2023-03-21T20:57:45.138Z,5.03
2023-03-21T21:00:48.862Z,6.22
2023-03-21T21:03:51.799Z,5.47
2023-03-21T21:06:55.412Z,6.17
2023-03-21T21:09:58.020Z,7.32
2023-03-21T21:13:00.514Z,5.32
2023-03-21T21:16:05.212Z,7.47
2023-03-21T21:19:08.404Z,5.33
2023-03-21T21:22:11.069Z,4.07
2023-03-21T21:25:14.470Z,5.57
2023-03-21T21:28:30.499Z,5.70
2023-03-21T21:31:34.944Z,4.55
2023-03-21T21:34:37.470Z,5.23
2023-03-21T21:37:41.989Z,6.07
2023-03-21T21:40:45.607Z,6.53
2023-03-21T21:43:47.970Z,4.93
2023-03-21T21:46:50.319Z,5.88
2023-03-21T21:49:52.668Z,6.03
2023-03-21T21:52:55.053Z,6.87
2023-03-21T21:55:57.349Z,5.53
2023-03-21T21:59:02.953Z,7.28
2023-03-21T22:02:06.954Z,4.75
2023-03-21T22:05:10.611Z,5.43
2023-03-21T22:08:13.174Z,4.70
2023-03-21T22:11:16.063Z,3.63
2023-03-21T22:14:18.466Z,6.03
2023-03-21T22:17:20.956Z,4.13
2023-03-21T22:20:23.498Z,6.10
2023-03-21T22:23:26.124Z,5.50
2023-03-21T22:26:28.604Z,5.80
2023-03-21T22:29:31.177Z,5.10
2023-03-21T22:32:35.351Z,5.35
2023-03-21T22:35:38.019Z,5.83
2023-03-21T22:38:42.030Z,7.77
2023-03-21T22:41:44.834Z,5.93
2023-03-21T22:44:47.271Z,5.55
2023-03-21T22:47:49.710Z,6.05
2023-03-21T22:50:52.105Z,4.70
2023-03-21T22:53:54.431Z,5.97
2023-03-21T22:56:59.582Z,4.85
2023-03-21T23:00:02.336Z,5.20
2023-03-21T23:03:04.874Z,5.40
2023-03-21T23:06:07.487Z,4.63
2023-03-21T23:09:10.238Z,3.97
2023-03-21T23:12:14.270Z,4.50
2023-03-21T23:15:16.709Z,5.18
2023-03-21T23:18:19.066Z,4.80
2023-03-21T23:21:23.361Z,4.20
2023-03-21T23:24:25.827Z,4.90
2023-03-21T23:27:28.345Z,5.55
2023-03-21T23:30:30.725Z,5.28
2023-03-21T23:33:33.114Z,4.10
2023-03-21T23:36:35.790Z,5.57
2023-03-21T23:39:39.513Z,4.93
2023-03-21T23:42:41.817Z,5.20
2023-03-21T23:45:44.313Z,4.57
2023-03-21T23:48:47.335Z,4.75
2023-03-21T23:51:50.116Z,4.33
2023-03-21T23:54:52.464Z,4.17
2023-03-21T23:57:59.202Z,4.55
